Time;durP1;ratioP1;P1;durP2;ratioP2;P2;SDS_P1;SDS_P2;PMS_P1;PMS_P2;Temp;Humidity;BMP_temperature;BMP_pressure;BME280_temperature;BME280_humidity;BME280_pressure;Samples;Min_cycle;Max_cycle;Signal;HPM_P1;HPM_P2
2022/02/26 00:01:38;;;;;;;5.28;3.33;;;;;;;6.81;45.53;101138.44;5110039;28;20077;-75
2022/02/26 00:04:04;;;;;;;5.82;3.53;;;;;;;6.77;45.92;101142.22;5111849;28;20478;-75
2022/02/26 00:06:30;;;;;;;7.53;3.15;;;;;;;6.70;46.17;101132.88;5112038;28;20050;-76
2022/02/26 00:08:55;;;;;;;6.35;3.38;;;;;;;6.67;46.58;101136.59;5111986;28;20479;-76
2022/02/26 00:11:21;;;;;;;9.40;3.28;;;;;;;6.71;46.48;101147.94;5110769;28;20042;-75
2022/02/26 00:13:46;;;;;;;5.15;2.33;;;;;;;6.67;46.68;101149.91;5111277;28;20035;-76
2022/02/26 00:16:12;;;;;;;4.30;2.78;;;;;;;6.62;46.72;101143.16;5111102;28;20039;-76
2022/02/26 00:18:37;;;;;;;8.75;3.50;;;;;;;6.59;46.91;101154.84;5111543;28;20024;-75
2022/02/26 00:21:03;;;;;;;5.85;3.20;;;;;;;6.52;47.13;101148.13;5110942;28;20020;-76
2022/02/26 00:23:29;;;;;;;5.43;2.53;;;;;;;6.46;47.29;101135.19;5107371;28;20027;-75
2022/02/26 00:25:54;;;;;;;7.32;3.70;;;;;;;6.47;47.59;101150.22;5111508;28;20023;-75
2022/02/26 00:28:20;;;;;;;5.32;2.92;;;;;;;6.42;47.90;101141.63;5110896;28;20084;-74
2022/02/26 00:30:46;;;;;;;7.15;3.17;;;;;;;6.48;47.99;101156.41;5111262;28;20027;-74
2022/02/26 00:33:13;;;;;;;6.40;3.38;;;;;;;6.44;48.46;101160.19;5111332;28;20047;-74
2022/02/26 00:35:39;;;;;;;6.15;3.42;;;;;;;6.40;48.84;101156.84;5111443;28;20064;-74
2022/02/26 00:38:05;;;;;;;6.18;3.70;;;;;;;6.41;50.05;101163.88;5109999;28;20026;-70
2022/02/26 00:40:31;;;;;;;5.78;3.35;;;;;;;6.39;51.31;101163.09;5110212;28;20024;-70
2022/02/26 00:42:57;;;;;;;7.57;4.20;;;;;;;6.39;51.72;101160.44;5108719;28;20028;-70
2022/02/26 00:45:23;;;;;;;6.57;3.63;;;;;;;6.34;52.98;101154.53;5109353;28;20046;-70
2022/02/26 00:47:49;;;;;;;5.68;3.45;;;;;;;6.31;53.29;101149.38;5109887;28;20106;-70
2022/02/26 00:50:16;;;;;;;7.18;4.30;;;;;;;6.40;53.96;101166.66;5107423;28;20031;-70
2022/02/26 00:52:41;;;;;;;8.20;4.30;;;;;;;6.42;54.72;101170.94;5109160;28;20034;-70
2022/02/26 00:55:08;;;;;;;9.73;4.50;;;;;;;6.39;54.97;101163.09;5108073;28;20032;-71
2022/02/26 00:57:33;;;;;;;7.20;4.47;;;;;;;6.42;55.56;101170.09;5107939;28;20035;-69
2022/02/26 00:59:59;;;;;;;6.72;4.50;;;;;;;6.37;56.16;101165.03;5109156;28;20031;-69
2022/02/26 01:02:25;;;;;;;8.60;4.40;;;;;;;6.27;56.93;101150.50;5109295;28;20024;-70
2022/02/26 01:04:50;;;;;;;5.28;3.90;;;;;;;6.37;57.20;101161.50;5107509;28;20034;-70
2022/02/26 01:07:16;;;;;;;9.25;4.72;;;;;;;6.42;57.99;101172.75;5109369;28;20035;-69
2022/02/26 01:09:41;;;;;;;10.95;4.25;;;;;;;6.41;58.00;101169.22;5109196;28;20032;-69
2022/02/26 01:12:09;;;;;;;6.60;4.38;;;;;;;6.39;59.08;101167.59;5108949;28;20067;-70
2022/02/26 01:14:35;;;;;;;6.63;4.53;;;;;;;6.38;59.66;101174.72;5109154;28;20065;-69
2022/02/26 01:17:03;;;;;;;6.25;4.60;;;;;;;6.41;59.50;101177.22;5109431;28;20032;-70
2022/02/26 01:19:29;;;;;;;10.20;5.15;;;;;;;6.43;60.38;101167.34;5109290;28;20475;-69
2022/02/26 01:21:54;;;;;;;7.70;5.22;;;;;;;6.38;60.38;101160.53;5107747;28;20022;-70
2022/02/26 01:24:20;;;;;;;9.73;5.13;;;;;;;6.44;60.90;101170.84;5109055;28;20040;-69
2022/02/26 01:26:45;;;;;;;7.18;4.75;;;;;;;6.38;61.32;101166.72;5109095;28;20063;-70
2022/02/26 01:29:11;;;;;;;6.82;4.97;;;;;;;6.37;61.38;101158.81;5108865;28;20027;-70
2022/02/26 01:31:37;;;;;;;8.57;4.97;;;;;;;6.41;61.98;101166.56;5109143;28;20028;-70
2022/02/26 01:34:03;;;;;;;7.90;5.50;;;;;;;6.39;61.78;101160.44;5108503;28;20027;-68
2022/02/26 01:36:29;;;;;;;7.22;5.38;;;;;;;6.40;62.30;101158.66;5109098;28;20391;-70
2022/02/26 01:38:55;;;;;;;8.07;5.82;;;;;;;6.37;61.98;101150.84;5108751;28;20056;-70
2022/02/26 01:41:21;;;;;;;6.60;5.35;;;;;;;6.37;62.31;101156.16;5107591;28;20036;-70
2022/02/26 01:43:47;;;;;;;7.97;5.32;;;;;;;6.30;62.11;101142.34;5107710;28;20051;-70
2022/02/26 01:46:13;;;;;;;8.77;5.30;;;;;;;6.36;62.81;101155.28;5108645;28;20061;-70
2022/02/26 01:48:38;;;;;;;7.97;5.05;;;;;;;6.33;62.30;101154.63;5109476;28;20467;-70
2022/02/26 01:51:06;;;;;;;10.18;6.13;;;;;;;6.31;62.27;101148.50;5108715;28;20042;-70
2022/02/26 01:53:32;;;;;;;8.05;5.97;;;;;;;6.31;62.41;101154.72;5110018;28;20448;-74
2022/02/26 01:55:58;;;;;;;9.52;6.00;;;;;;;6.27;62.93;101134.53;5110770;28;20032;-75
2022/02/26 01:58:24;;;;;;;8.98;6.18;;;;;;;6.25;63.01;101138.19;5110591;28;20031;-75
2022/02/26 02:00:49;;;;;;;6.82;5.40;;;;;;;6.14;62.88;101119.31;5110127;28;20049;-75
2022/02/26 02:03:15;;;;;;;7.32;5.55;;;;;;;6.21;63.33;101136.66;5110372;28;20421;-75
2022/02/26 02:05:43;;;;;;;9.60;6.07;;;;;;;6.14;63.44;101128.19;5111080;28;20016;-74
2022/02/26 02:08:10;;;;;;;10.77;6.45;;;;;;;6.15;62.96;101126.34;5110472;28;20031;-76
2022/02/26 02:10:38;;;;;;;7.93;5.60;;;;;;;6.22;63.05;101120.59;5110702;28;20028;-75
2022/02/26 02:13:03;;;;;;;8.73;5.97;;;;;;;6.16;63.56;101136.94;5113145;28;20522;-75
2022/02/26 02:15:34;;;;;;;10.00;6.63;;;;;;;6.06;63.79;101129.56;5114827;28;20122;-76
2022/02/26 02:18:00;;;;;;;10.80;7.05;;;;;;;6.06;63.40;101127.75;5114697;28;20114;-75
2022/02/26 02:20:26;;;;;;;9.02;6.35;;;;;;;6.04;63.67;101136.78;5114305;27;20512;-75
2022/02/26 02:22:51;;;;;;;11.05;6.90;;;;;;;5.96;63.84;101139.84;5114823;28;20481;-75
2022/02/26 02:25:18;;;;;;;10.15;7.05;;;;;;;5.87;64.00;101131.53;5113963;28;20027;-75
2022/02/26 02:27:44;;;;;;;10.38;6.70;;;;;;;5.85;64.19;101141.41;5113974;28;20027;-75
2022/02/26 02:30:10;;;;;;;10.45;7.25;;;;;;;5.75;64.45;101137.50;5113981;27;20031;-76
2022/02/26 02:32:36;;;;;;;11.70;7.32;;;;;;;5.76;64.77;101160.50;5114182;28;20497;-76
2022/02/26 02:35:02;;;;;;;13.18;8.25;;;;;;;5.70;64.45;101166.16;5111600;28;20047;-76
2022/02/26 02:37:27;;;;;;;14.13;9.02;;;;;;;5.77;64.91;101178.22;5112845;27;20024;-75
2022/02/26 02:39:53;;;;;;;14.82;8.95;;;;;;;5.80;64.74;101184.19;5111444;28;20027;-76
2022/02/26 02:42:18;;;;;;;10.95;6.95;;;;;;;5.80;64.01;101180.69;5112558;28;20124;-75
2022/02/26 02:44:44;;;;;;;11.93;6.57;;;;;;;5.75;64.19;101191.59;5112095;28;20027;-76
2022/02/26 02:47:09;;;;;;;10.25;6.00;;;;;;;5.72;63.67;101189.09;5112142;28;20035;-76
2022/02/26 02:49:35;;;;;;;9.40;6.35;;;;;;;5.63;64.64;101184.25;5111914;28;20053;-76
2022/02/26 02:52:01;;;;;;;12.07;6.68;;;;;;;5.52;64.50;101178.66;5112085;28;20039;-74
2022/02/26 02:54:26;;;;;;;9.52;6.60;;;;;;;5.41;65.02;101175.69;5110160;28;20036;-76
2022/02/26 02:56:52;;;;;;;11.10;7.03;;;;;;;5.43;64.88;101183.59;5112283;28;20032;-74
2022/02/26 02:59:17;;;;;;;7.97;5.80;;;;;;;5.34;65.19;101189.41;5112875;28;20080;-74
2022/02/26 03:01:43;;;;;;;10.60;6.13;;;;;;;5.24;65.60;101188.16;5112860;28;20540;-75
2022/02/26 03:04:09;;;;;;;10.68;6.45;;;;;;;5.15;65.78;101178.88;5112511;28;20028;-75
2022/02/26 03:06:34;;;;;;;12.00;6.75;;;;;;;5.13;66.04;101191.41;5112480;28;20463;-74
2022/02/26 03:09:00;;;;;;;11.95;7.00;;;;;;;5.13;66.04;101191.41;5111757;28;20122;-76
2022/02/26 03:11:26;;;;;;;10.98;6.70;;;;;;;5.17;65.93;101192.97;5112227;28;20039;-75
2022/02/26 03:13:51;;;;;;;9.40;6.30;;;;;;;5.03;66.18;101171.53;5111946;27;20043;-76
2022/02/26 03:16:17;;;;;;;12.38;7.20;;;;;;;5.10;66.12;101188.03;5109874;28;20023;-76
2022/02/26 03:18:43;;;;;;;10.65;6.95;;;;;;;5.17;65.97;101208.03;5110681;28;20019;-75
2022/02/26 03:21:09;;;;;;;13.55;7.22;;;;;;;5.18;65.99;101199.13;5111058;28;20474;-75
2022/02/26 03:23:35;;;;;;;12.45;7.30;;;;;;;5.11;65.99;101190.63;5111404;28;20103;-75
2022/02/26 03:26:01;;;;;;;14.13;7.03;;;;;;;5.15;65.39;101192.16;5112076;28;20023;-75
2022/02/26 03:28:26;;;;;;;13.20;7.72;;;;;;;5.12;65.40;101192.31;5111252;28;20030;-74
2022/02/26 03:30:52;;;;;;;13.93;7.47;;;;;;;5.20;65.01;101203.44;5111909;28;20034;-70
2022/02/26 03:33:17;;;;;;;12.55;7.18;;;;;;;5.11;64.60;101201.25;5110823;28;20024;-70
2022/02/26 03:35:43;;;;;;;13.88;7.18;;;;;;;5.14;64.92;101206.41;5111622;28;20024;-70
2022/02/26 03:38:09;;;;;;;14.23;7.90;;;;;;;5.18;64.75;101215.94;5110774;28;20043;-70
2022/02/26 03:40:35;;;;;;;13.48;8.02;;;;;;;5.16;64.53;101211.66;5110230;28;20058;-70
2022/02/26 03:43:02;;;;;;;13.40;7.63;;;;;;;5.16;64.73;101219.63;5110306;28;20024;-71
2022/02/26 03:45:28;;;;;;;12.05;7.10;;;;;;;5.17;64.58;101224.88;5110679;28;20023;-71
2022/02/26 03:47:53;;;;;;;13.50;7.07;;;;;;;5.09;64.38;101212.91;5109959;28;20072;-69
2022/02/26 03:50:19;;;;;;;10.68;6.70;;;;;;;5.06;64.24;101224.53;5108663;28;20027;-71
2022/02/26 03:52:44;;;;;;;11.05;6.55;;;;;;;5.07;63.57;101222.75;5109991;28;20066;-70
2022/02/26 03:55:09;;;;;;;12.45;6.63;;;;;;;5.03;63.40;101218.53;5110428;28;20035;-69
2022/02/26 03:57:35;;;;;;;10.95;6.53;;;;;;;5.01;63.47;101223.94;5111034;28;20019;-69
2022/02/26 04:00:02;;;;;;;9.55;6.25;;;;;;;5.03;62.69;101237.97;5110783;28;20467;-70
2022/02/26 04:02:28;;;;;;;11.75;6.65;;;;;;;4.98;62.32;101232.06;5110627;28;20020;-70
2022/02/26 04:04:54;;;;;;;7.72;6.03;;;;;;;4.98;61.64;101240.03;5110825;28;20024;-70
2022/02/26 04:07:20;;;;;;;9.07;5.47;;;;;;;4.86;61.85;101237.13;5110566;28;20126;-69
2022/02/26 04:09:45;;;;;;;9.48;5.80;;;;;;;5.02;60.58;101252.22;5110937;27;20035;-70
2022/02/26 04:12:11;;;;;;;7.45;5.00;;;;;;;5.01;60.22;101271.78;5109816;28;20039;-69
2022/02/26 04:14:36;;;;;;;8.75;4.95;;;;;;;4.90;60.48;101263.47;5109578;28;20029;-70
2022/02/26 04:17:02;;;;;;;8.82;5.20;;;;;;;4.77;60.51;101256.19;5109022;28;20035;-69
2022/02/26 04:19:27;;;;;;;8.90;4.82;;;;;;;4.58;60.49;101243.78;5109138;28;20055;-69
2022/02/26 04:21:53;;;;;;;9.73;4.93;;;;;;;4.62;60.75;101265.75;5109201;28;20277;-70
2022/02/26 04:24:19;;;;;;;7.55;4.57;;;;;;;4.55;60.48;101264.34;5109060;28;20031;-70
2022/02/26 04:26:44;;;;;;;8.20;4.65;;;;;;;4.54;61.11;101262.59;5109795;28;20031;-70
2022/02/26 04:29:11;;;;;;;9.55;4.57;;;;;;;4.38;60.76;101262.47;5109005;28;20027;-71
2022/02/26 04:31:37;;;;;;;9.00;4.97;;;;;;;4.44;60.65;101270.16;5109560;28;20031;-70
2022/02/26 04:34:03;;;;;;;5.72;4.03;;;;;;;4.40;61.17;101271.25;5108965;28;20032;-70
2022/02/26 04:36:28;;;;;;;7.80;4.40;;;;;;;4.38;60.94;101273.09;5108019;28;20123;-70
2022/02/26 04:38:54;;;;;;;6.07;4.07;;;;;;;4.36;60.72;101268.81;5109312;28;20059;-69
2022/02/26 04:41:19;;;;;;;6.22;4.32;;;;;;;4.40;60.65;101276.56;5108163;28;20076;-70
2022/02/26 04:43:45;;;;;;;5.78;4.13;;;;;;;4.37;60.36;101278.47;5110609;28;20098;-70
2022/02/26 04:46:11;;;;;;;6.97;4.00;;;;;;;4.24;60.46;101262.28;5109978;28;20059;-68
2022/02/26 04:48:37;;;;;;;7.35;4.20;;;;;;;4.32;60.33;101278.69;5109962;27;20027;-70
2022/02/26 04:51:06;;;;;;;7.93;4.60;;;;;;;4.29;60.61;101276.19;5109964;28;20372;-76
2022/02/26 04:53:31;;;;;;;10.85;4.70;;;;;;;4.32;60.09;101285.81;5109345;28;20020;-75
2022/02/26 04:55:57;;;;;;;7.22;4.18;;;;;;;4.25;59.98;101274.59;5109393;28;20384;-75
2022/02/26 04:58:22;;;;;;;9.15;4.25;;;;;;;4.27;60.07;101285.16;5105176;28;20027;-74
2022/02/26 05:00:48;;;;;;;6.75;4.18;;;;;;;4.33;59.87;101290.19;5109277;28;20073;-75
2022/02/26 05:03:13;;;;;;;7.00;4.18;;;;;;;4.22;59.90;101279.19;5109090;28;20494;-70
2022/02/26 05:05:39;;;;;;;7.13;3.80;;;;;;;4.21;59.72;101278.34;5108312;28;20076;-70
2022/02/26 05:08:04;;;;;;;7.78;4.35;;;;;;;4.32;59.86;101301.75;5108370;28;20024;-69
2022/02/26 05:10:30;;;;;;;18.17;9.80;;;;;;;4.38;59.00;101298.78;5108636;28;20039;-69
2022/02/26 05:12:56;;;;;;;18.15;10.73;;;;;;;4.40;58.71;101311.09;5108770;28;20016;-70
2022/02/26 05:15:22;;;;;;;16.80;11.18;;;;;;;4.35;58.82;101313.06;5108838;28;20023;-69
2022/02/26 05:17:47;;;;;;;12.85;9.23;;;;;;;4.26;59.08;101310.84;5109051;28;20030;-69
2022/02/26 05:20:14;;;;;;;12.73;8.32;;;;;;;4.20;59.61;101312.94;5107443;28;20394;-70
2022/02/26 05:22:40;;;;;;;11.38;7.22;;;;;;;4.31;59.33;101331.88;5109277;28;20024;-70
2022/02/26 05:25:07;;;;;;;9.35;5.40;;;;;;;4.20;59.11;101319.09;5111470;28;20028;-69
2022/02/26 05:27:33;;;;;;;7.20;4.80;;;;;;;4.24;59.06;101333.97;5111945;28;20049;-70
2022/02/26 05:29:58;;;;;;;9.38;3.65;;;;;;;4.28;59.27;101337.31;5111209;28;20586;-70
2022/02/26 05:32:24;;;;;;;6.30;4.05;;;;;;;4.28;58.99;101342.63;5110707;28;20035;-70
2022/02/26 05:34:53;;;;;;;8.02;3.88;;;;;;;4.30;58.94;101340.78;5109481;28;20034;-70
2022/02/26 05:37:20;;;;;;;6.18;3.90;;;;;;;4.35;58.47;101344.94;5107345;28;20032;-70
2022/02/26 05:39:45;;;;;;;6.65;3.08;;;;;;;4.42;57.77;101342.88;5108870;28;20046;-70
2022/02/26 05:42:11;;;;;;;8.05;3.78;;;;;;;4.39;57.88;101346.53;5108531;28;20031;-70
2022/02/26 05:44:37;;;;;;;11.15;3.30;;;;;;;4.34;57.96;101337.03;5108652;28;20027;-70
2022/02/26 05:47:03;;;;;;;9.07;3.35;;;;;;;4.39;57.28;101346.53;5112630;28;20145;-69
2022/02/26 05:49:28;;;;;;;10.30;3.67;;;;;;;4.41;56.77;101352.63;5117964;27;20035;-74
2022/02/26 05:51:53;;;;;;;7.35;3.38;;;;;;;4.37;57.37;101361.69;5117303;27;20058;-74
2022/02/26 05:54:19;;;;;;;8.57;3.42;;;;;;;4.39;57.03;101367.75;5116607;27;20048;-76
2022/02/26 05:56:44;;;;;;;5.15;2.80;;;;;;;4.35;56.64;101354.69;5122099;28;20201;-75
2022/02/26 05:59:10;;;;;;;6.57;2.83;;;;;;;4.43;56.59;101369.38;5128003;27;20054;-73
2022/02/26 06:01:35;;;;;;;5.95;3.38;;;;;;;4.31;56.77;101351.34;5124169;27;20023;-71
2022/02/26 06:04:01;;;;;;;7.65;3.72;;;;;;;4.41;56.69;101365.03;5121407;27;20103;-74
2022/02/26 06:06:27;;;;;;;11.30;4.10;;;;;;;4.37;56.67;101371.44;5118472;27;20023;-75
2022/02/26 06:08:52;;;;;;;8.90;3.92;;;;;;;4.41;56.86;101367.69;5119240;27;20031;-73
2022/02/26 06:11:19;;;;;;;9.68;4.60;;;;;;;4.37;56.53;101358.16;5117751;28;20063;-75
2022/02/26 06:13:45;;;;;;;5.88;3.38;;;;;;;4.43;56.25;101361.41;5116830;27;20026;-73
2022/02/26 06:16:11;;;;;;;13.30;4.40;;;;;;;4.48;56.37;101377.09;5115947;27;20028;-75
2022/02/26 06:18:36;;;;;;;8.20;3.17;;;;;;;4.53;56.24;101369.78;5114879;27;20035;-75
2022/02/26 06:21:02;;;;;;;8.68;3.58;;;;;;;4.51;56.32;101366.34;5116101;27;20024;-74
2022/02/26 06:23:27;;;;;;;6.57;3.03;;;;;;;4.47;56.05;101360.31;5116862;27;20023;-75
2022/02/26 06:25:52;;;;;;;9.60;3.58;;;;;;;4.61;56.24;101380.91;5117187;27;20027;-75
2022/02/26 06:28:19;;;;;;;9.77;3.15;;;;;;;4.64;56.30;101375.47;5113892;28;20031;-75
2022/02/26 06:30:44;;;;;;;7.47;3.47;;;;;;;4.61;56.35;101375.59;5116017;27;20470;-73
2022/02/26 06:33:13;;;;;;;6.15;3.17;;;;;;;4.73;55.86;101393.63;5114241;27;20034;-74
2022/02/26 06:35:42;;;;;;;6.65;3.00;;;;;;;4.66;55.91;101376.25;5115918;27;20465;-74
2022/02/26 06:38:07;;;;;;;8.45;3.72;;;;;;;4.73;55.91;101383.88;5115692;27;20035;-75
2022/02/26 06:40:33;;;;;;;7.50;3.05;;;;;;;4.70;56.19;101373.38;5116390;27;20081;-75
2022/02/26 06:42:59;;;;;;;11.18;4.53;;;;;;;4.66;55.96;101357.66;5115596;27;20047;-75
2022/02/26 06:45:24;;;;;;;10.63;3.78;;;;;;;4.83;56.09;101378.13;5115448;27;20173;-75
2022/02/26 06:47:50;;;;;;;10.15;4.10;;;;;;;4.87;56.22;101391.19;5115953;27;20035;-74
2022/02/26 06:50:15;;;;;;;7.18;4.07;;;;;;;4.86;56.34;101373.50;5114785;27;20517;-69
2022/02/26 06:52:41;;;;;;;10.23;3.92;;;;;;;4.92;56.10;101373.22;5112858;27;20073;-69
2022/02/26 06:55:07;;;;;;;8.43;3.95;;;;;;;4.98;56.07;101380.03;5113032;27;20403;-70
2022/02/26 06:57:32;;;;;;;10.20;4.18;;;;;;;5.03;55.93;101372.72;5112397;27;20143;-70
2022/02/26 06:59:58;;;;;;;8.18;4.57;;;;;;;5.04;56.06;101374.44;5110291;28;20164;-69
2022/02/26 07:02:24;;;;;;;8.20;4.13;;;;;;;5.16;55.86;101371.19;5109954;28;20027;-70
2022/02/26 07:04:49;;;;;;;5.80;3.97;;;;;;;5.27;55.55;101393.66;5109461;28;20080;-70
2022/02/26 07:07:14;;;;;;;6.93;4.10;;;;;;;5.30;55.69;101384.66;5110129;28;20088;-71
2022/02/26 07:09:41;;;;;;;7.95;4.28;;;;;;;5.34;55.58;101383.56;5110022;28;20088;-70
2022/02/26 07:12:08;;;;;;;6.15;3.60;;;;;;;5.30;55.39;101376.69;5109636;28;20084;-70
2022/02/26 07:14:33;;;;;;;9.10;3.50;;;;;;;5.46;55.51;101391.81;5109677;28;20070;-68
2022/02/26 07:16:59;;;;;;;10.05;3.80;;;;;;;5.48;55.21;101383.75;5110150;28;20055;-69
2022/02/26 07:19:24;;;;;;;6.53;3.17;;;;;;;5.62;55.76;101391.91;5109985;28;20019;-69
2022/02/26 07:21:49;;;;;;;5.30;3.25;;;;;;;5.61;55.09;101382.22;5109770;28;20046;-70
2022/02/26 07:24:16;;;;;;;7.00;3.13;;;;;;;5.77;54.98;101389.31;5109719;28;20042;-70
2022/02/26 07:26:41;;;;;;;5.85;3.25;;;;;;;5.91;54.67;101402.84;5107874;28;20172;-70
2022/02/26 07:29:07;;;;;;;5.65;3.15;;;;;;;6.01;54.73;101389.91;5110089;28;20487;-69
2022/02/26 07:31:33;;;;;;;6.63;3.50;;;;;;;6.11;54.29;101376.03;5110141;28;20046;-70
2022/02/26 07:33:58;;;;;;;12.00;3.60;;;;;;;6.29;53.55;101375.03;5108027;28;20020;-71
2022/02/26 07:36:23;;;;;;;6.32;3.65;;;;;;;6.43;53.52;101388.50;5108280;28;20028;-69
2022/02/26 07:38:49;;;;;;;9.35;4.25;;;;;;;6.52;53.13;101377.31;5109550;28;20099;-70
2022/02/26 07:41:14;;;;;;;6.72;3.90;;;;;;;6.69;52.76;101379.94;5109451;28;20039;-70
2022/02/26 07:43:40;;;;;;;9.68;4.93;;;;;;;6.84;52.03;101376.41;5109674;28;20015;-71
2022/02/26 07:46:06;;;;;;;10.20;4.85;;;;;;;7.09;51.71;101381.22;5109619;28;20047;-70
2022/02/26 07:48:32;;;;;;;15.50;5.57;;;;;;;7.33;50.07;101371.84;5109273;28;20036;-69
2022/02/26 07:50:58;;;;;;;12.73;5.80;;;;;;;7.85;48.49;101382.97;5109832;28;20032;-69
2022/02/26 07:53:23;;;;;;;15.25;6.25;;;;;;;8.40;47.21;101381.38;5109123;28;20038;-70
2022/02/26 07:55:50;;;;;;;14.68;5.55;;;;;;;8.98;44.96;101377.59;5109412;28;20115;-72
2022/02/26 07:58:15;;;;;;;29.90;7.20;;;;;;;9.62;42.98;101379.59;5109363;28;20027;-70
2022/02/26 08:00:41;;;;;;;17.23;7.30;;;;;;;10.10;42.01;101365.56;5109905;28;20020;-71
2022/02/26 08:03:07;;;;;;;20.85;6.47;;;;;;;10.47;39.81;101370.06;5110479;28;20608;-72
2022/02/26 08:05:32;;;;;;;14.80;5.78;;;;;;;10.76;39.19;101371.53;5111153;28;20476;-71
2022/02/26 08:07:59;;;;;;;13.50;5.13;;;;;;;11.11;38.35;101379.69;5110441;28;20028;-71
2022/02/26 08:10:25;;;;;;;12.50;5.32;;;;;;;11.42;37.33;101371.94;5108380;28;20047;-71
2022/02/26 08:12:53;;;;;;;13.82;6.07;;;;;;;11.61;37.32;101367.88;5109985;28;20027;-71
2022/02/26 08:15:20;;;;;;;10.52;4.60;;;;;;;11.52;36.70;101381.03;5109620;28;20099;-70
2022/02/26 08:17:46;;;;;;;8.05;4.70;;;;;;;11.34;37.26;101379.72;5109605;28;20046;-71
2022/02/26 08:20:14;;;;;;;12.07;4.60;;;;;;;11.04;37.18;101371.25;5109526;28;20058;-70
2022/02/26 08:22:43;;;;;;;18.75;4.55;;;;;;;10.66;36.64;101354.38;5109676;28;20024;-72
2022/02/26 08:25:10;;;;;;;8.10;4.55;;;;;;;10.65;37.53;101386.66;5109505;28;20063;-69
2022/02/26 08:27:36;;;;;;;15.98;3.80;;;;;;;10.32;37.38;101389.88;5109247;28;20032;-70
2022/02/26 08:30:04;;;;;;;14.40;3.92;;;;;;;10.00;37.43;101374.31;5108984;28;20030;-71
2022/02/26 08:32:30;;;;;;;10.55;3.75;;;;;;;10.03;37.97;101395.53;5102230;28;20027;-71
2022/02/26 08:34:55;;;;;;;18.58;3.72;;;;;;;9.91;37.63;101396.38;5107208;27;20554;-70
2022/02/26 08:37:21;;;;;;;19.15;3.80;;;;;;;9.92;37.63;101401.63;5107106;28;20062;-71
2022/02/26 08:39:46;;;;;;;11.77;3.72;;;;;;;9.85;37.33;101394.09;5107388;27;20073;-71
2022/02/26 08:42:12;;;;;;;13.13;3.80;;;;;;;9.75;37.69;101390.31;5106855;28;20030;-71
2022/02/26 08:44:38;;;;;;;13.65;4.32;;;;;;;9.75;38.06;101391.19;5106963;28;20107;-70
2022/02/26 08:47:04;;;;;;;14.38;4.25;;;;;;;9.78;38.36;101379.41;5108335;28;20114;-72
2022/02/26 08:49:30;;;;;;;12.60;3.78;;;;;;;9.77;37.99;101394.59;5106883;27;20210;-73
2022/02/26 08:51:55;;;;;;;8.40;4.30;;;;;;;9.85;38.34;101394.97;5105863;28;20038;-71
2022/02/26 08:54:21;;;;;;;8.07;4.70;;;;;;;9.92;38.25;101400.75;5105722;28;20054;-70
2022/02/26 08:56:46;;;;;;;7.50;3.90;;;;;;;9.89;37.37;101396.47;5107059;27;20553;-69
2022/02/26 08:59:12;;;;;;;10.85;3.90;;;;;;;9.91;37.87;101404.41;5105836;28;20076;-71
2022/02/26 09:01:40;;;;;;;9.23;4.30;;;;;;;9.96;37.90;101411.16;5105440;28;20032;-70
2022/02/26 09:04:06;;;;;;;11.52;3.60;;;;;;;9.95;36.87;101419.31;5107005;28;20531;-71
2022/02/26 09:06:33;;;;;;;9.52;4.05;;;;;;;9.95;37.64;101413.94;5105669;28;20058;-71
2022/02/26 09:08:59;;;;;;;8.43;3.70;;;;;;;10.05;38.04;101425.75;5106859;28;20371;-71
2022/02/26 09:11:25;;;;;;;8.32;3.42;;;;;;;10.03;37.49;101422.34;5105747;27;20127;-70
2022/02/26 09:13:51;;;;;;;10.65;4.00;;;;;;;10.07;37.61;101422.06;5107215;28;20050;-70
2022/02/26 09:16:16;;;;;;;10.55;3.67;;;;;;;10.02;36.02;101410.75;5106183;27;20528;-70
2022/02/26 09:18:43;;;;;;;8.02;2.83;;;;;;;10.03;35.84;101406.25;5107297;28;20039;-72
2022/02/26 09:21:09;;;;;;;14.40;3.58;;;;;;;10.17;36.01;101411.56;5106166;27;20120;-71
2022/02/26 09:23:35;;;;;;;7.70;3.42;;;;;;;10.36;36.04;101423.59;5107073;28;20016;-71
2022/02/26 09:26:04;;;;;;;14.40;3.15;;;;;;;10.41;35.77;101425.94;5107283;28;20086;-72
2022/02/26 09:28:35;;;;;;;11.10;3.13;;;;;;;10.68;35.54;101430.22;5105007;28;20122;-69
2022/02/26 09:31:01;;;;;;;11.32;3.45;;;;;;;11.06;34.86;101412.25;5107483;28;20038;-72
2022/02/26 09:33:29;;;;;;;7.03;2.85;;;;;;;11.67;33.99;101416.66;5105905;27;20042;-72
2022/02/26 09:35:56;;;;;;;9.70;2.65;;;;;;;12.73;31.97;101396.66;5107373;28;20035;-71
2022/02/26 09:38:21;;;;;;;8.43;3.15;;;;;;;14.19;30.35;101414.03;5104695;28;20035;-72
2022/02/26 09:40:47;;;;;;;9.80;3.70;;;;;;;15.57;28.86;101407.06;5106545;28;20053;-73
2022/02/26 09:43:13;;;;;;;9.43;3.58;;;;;;;16.98;27.63;101395.34;5106355;27;20062;-72
2022/02/26 09:45:38;;;;;;;11.45;3.67;;;;;;;18.20;25.71;101401.94;5106963;28;20027;-73
2022/02/26 09:48:05;;;;;;;12.95;3.83;;;;;;;19.25;24.55;101379.81;5107096;27;20059;-71
2022/02/26 09:50:30;;;;;;;14.60;3.88;;;;;;;19.87;23.85;101379.31;5107872;28;20128;-71
2022/02/26 09:52:57;;;;;;;7.85;3.60;;;;;;;20.75;22.93;101383.91;5106888;28;20115;-72
2022/02/26 09:55:23;;;;;;;9.00;3.03;;;;;;;21.05;21.78;101371.41;5109530;28;20067;-72
2022/02/26 09:57:57;;;;;;;9.15;2.85;;;;;;;21.10;21.16;101386.19;5107388;28;20063;-72
2022/02/26 10:00:23;;;;;;;9.95;2.90;;;;;;;21.46;21.04;101378.34;5103765;27;20055;-72
2022/02/26 10:02:49;;;;;;;6.85;3.00;;;;;;;22.11;20.63;101383.22;5107821;28;20023;-73
2022/02/26 10:05:18;;;;;;;5.13;2.65;;;;;;;22.62;19.92;101378.00;5107842;28;20165;-73
2022/02/26 10:07:46;;;;;;;19.77;3.22;;;;;;;22.78;19.60;101372.34;5108537;28;20051;-72
2022/02/26 10:10:19;;;;;;;6.75;2.55;;;;;;;23.29;19.51;101380.50;5108044;28;20046;-72
2022/02/26 10:12:50;;;;;;;6.03;2.47;;;;;;;23.35;18.88;101356.97;5107636;28;20487;-72
2022/02/26 10:15:28;;;;;;;13.18;2.65;;;;;;;23.46;18.96;101375.63;5107522;28;20084;-72
2022/02/26 10:18:13;;;;;;;5.57;2.55;;;;;;;23.54;18.96;101367.31;5106354;28;20023;-73
2022/02/26 10:20:54;;;;;;;12.77;2.72;;;;;;;23.27;18.69;101379.81;5107909;28;20055;-71
2022/02/26 10:23:21;;;;;;;11.65;2.60;;;;;;;22.59;19.59;101368.28;5106893;28;20032;-72
2022/02/26 10:25:47;;;;;;;6.65;2.50;;;;;;;22.30;19.77;101392.78;5108868;28;20483;-72
2022/02/26 10:28:14;;;;;;;5.28;2.08;;;;;;;22.19;19.81;101385.03;5108878;28;20085;-72
2022/02/26 10:30:42;;;;;;;6.68;2.38;;;;;;;21.85;19.95;101392.81;5107203;28;20452;-71
2022/02/26 10:33:13;;;;;;;19.92;2.72;;;;;;;21.44;20.19;101385.88;5107929;28;20051;-72
2022/02/26 10:35:46;;;;;;;9.20;2.20;;;;;;;21.11;19.98;101379.72;5111954;28;20023;-73
2022/02/26 10:38:23;;;;;;;7.00;2.25;;;;;;;20.19;20.85;101357.56;5111714;28;20514;-73
2022/02/26 10:40:50;;;;;;;21.13;3.22;;;;;;;19.53;22.16;101391.34;5111985;28;20471;-72
2022/02/26 10:43:51;;;;;;;5.28;2.10;;;;;;;19.03;22.27;101377.72;5110062;28;20031;-72
2022/02/26 10:46:22;;;;;;;9.23;2.10;;;;;;;18.38;22.98;101396.50;5108593;28;21306;-71
2022/02/26 10:48:54;;;;;;;25.25;3.17;;;;;;;17.61;23.54;101383.56;5111167;28;20146;-72
2022/02/26 10:51:26;;;;;;;7.82;2.22;;;;;;;16.92;23.82;101386.94;5112664;28;20034;-72
2022/02/26 10:53:52;;;;;;;7.25;2.33;;;;;;;16.48;24.65;101384.97;5112707;28;20518;-71
2022/02/26 10:56:18;;;;;;;14.05;3.08;;;;;;;15.90;25.42;101387.69;5112618;28;20029;-72
2022/02/26 10:58:44;;;;;;;11.13;2.97;;;;;;;15.18;25.93;101382.75;5111718;28;20035;-72
2022/02/26 11:01:17;;;;;;;8.45;2.20;;;;;;;14.52;26.89;101377.94;5111824;27;20027;-72
2022/02/26 11:03:43;;;;;;;9.68;2.75;;;;;;;13.85;27.28;101388.22;5112077;28;20038;-72
2022/02/26 11:06:11;;;;;;;9.32;2.80;;;;;;;13.38;27.88;101389.50;5112734;28;20135;-73
2022/02/26 11:08:38;;;;;;;6.68;2.08;;;;;;;12.94;28.52;101386.88;5112446;28;20080;-70
2022/02/26 11:11:06;;;;;;;7.32;2.05;;;;;;;12.63;28.88;101390.28;5112657;28;20039;-72
2022/02/26 11:13:33;;;;;;;8.60;2.00;;;;;;;12.41;29.55;101402.88;5112227;27;20054;-72
2022/02/26 11:16:00;;;;;;;6.47;2.05;;;;;;;12.24;30.11;101398.78;5110086;28;20030;-73
2022/02/26 11:18:38;;;;;;;4.63;1.88;;;;;;;11.78;30.02;101375.56;5111763;27;20598;-70
2022/02/26 11:21:12;;;;;;;14.32;2.28;;;;;;;11.62;29.75;101383.94;5110901;28;20047;-72
2022/02/26 11:23:38;;;;;;;17.02;2.63;;;;;;;11.27;30.21;101367.72;5110738;28;20027;-72
2022/02/26 11:26:07;;;;;;;10.73;2.05;;;;;;;11.31;30.03;101400.56;5112547;28;20041;-72